sensor_id;sensor_type;location;lat;lon;timestamp;pressure;altitude;pressure_sealevel;temperature
33877;BMP180;20166;51.738;7.158;2024-03-22T00:02:25;101624.00;;;11.00
33877;BMP180;20166;51.738;7.158;2024-03-22T00:05:10;101613.00;;;11.10
33877;BMP180;20166;51.738;7.158;2024-03-22T00:07:55;101612.00;;;11.10
33877;BMP180;20166;51.738;7.158;2024-03-22T00:10:40;101618.00;;;11.10
33877;BMP180;20166;51.738;7.158;2024-03-22T00:13:27;101602.00;;;11.10
33877;BMP180;20166;51.738;7.158;2024-03-22T00:16:12;101600.00;;;11.20
33877;BMP180;20166;51.738;7.158;2024-03-22T00:18:57;101603.00;;;11.20
33877;BMP180;20166;51.738;7.158;2024-03-22T00:21:42;101583.00;;;11.20
33877;BMP180;20166;51.738;7.158;2024-03-22T00:24:28;101592.00;;;11.30
33877;BMP180;20166;51.738;7.158;2024-03-22T00:27:12;101585.00;;;11.30
33877;BMP180;20166;51.738;7.158;2024-03-22T00:29:59;101575.00;;;11.30
33877;BMP180;20166;51.738;7.158;2024-03-22T00:32:44;101574.00;;;11.40
33877;BMP180;20166;51.738;7.158;2024-03-22T00:35:29;101561.00;;;11.40
33877;BMP180;20166;51.738;7.158;2024-03-22T00:38:14;101555.00;;;11.40
33877;BMP180;20166;51.738;7.158;2024-03-22T00:41:00;101555.00;;;11.40
33877;BMP180;20166;51.738;7.158;2024-03-22T00:43:45;101548.00;;;11.40
33877;BMP180;20166;51.738;7.158;2024-03-22T00:46:32;101543.00;;;11.40
33877;BMP180;20166;51.738;7.158;2024-03-22T00:49:17;101547.00;;;11.50
33877;BMP180;20166;51.738;7.158;2024-03-22T00:52:03;101547.00;;;11.50
33877;BMP180;20166;51.738;7.158;2024-03-22T00:54:47;101527.00;;;11.40
33877;BMP180;20166;51.738;7.158;2024-03-22T00:57:34;101532.00;;;11.40
33877;BMP180;20166;51.738;7.158;2024-03-22T01:00:19;101525.00;;;11.40
33877;BMP180;20166;51.738;7.158;2024-03-22T01:03:06;101530.00;;;11.40
33877;BMP180;20166;51.738;7.158;2024-03-22T01:05:50;101532.00;;;11.50
33877;BMP180;20166;51.738;7.158;2024-03-22T01:08:36;101526.00;;;11.40
33877;BMP180;20166;51.738;7.158;2024-03-22T01:11:21;101527.00;;;11.50
33877;BMP180;20166;51.738;7.158;2024-03-22T01:14:06;101512.00;;;11.50
33877;BMP180;20166;51.738;7.158;2024-03-22T01:16:51;101512.00;;;11.40
33877;BMP180;20166;51.738;7.158;2024-03-22T01:19:38;101510.00;;;11.40
33877;BMP180;20166;51.738;7.158;2024-03-22T01:22:23;101496.00;;;11.50
33877;BMP180;20166;51.738;7.158;2024-03-22T01:25:08;101486.00;;;11.50
33877;BMP180;20166;51.738;7.158;2024-03-22T01:27:56;101486.00;;;11.60
33877;BMP180;20166;51.738;7.158;2024-03-22T01:30:42;101485.00;;;11.60
33877;BMP180;20166;51.738;7.158;2024-03-22T01:33:27;101474.00;;;11.70
33877;BMP180;20166;51.738;7.158;2024-03-22T01:36:14;101467.00;;;11.70
33877;BMP180;20166;51.738;7.158;2024-03-22T01:38:59;101463.00;;;11.70
33877;BMP180;20166;51.738;7.158;2024-03-22T01:41:44;101464.00;;;11.70
33877;BMP180;20166;51.738;7.158;2024-03-22T01:44:29;101456.00;;;11.70
33877;BMP180;20166;51.738;7.158;2024-03-22T01:47:17;101452.00;;;11.70
33877;BMP180;20166;51.738;7.158;2024-03-22T01:50:01;101442.00;;;11.70
33877;BMP180;20166;51.738;7.158;2024-03-22T01:52:48;101437.00;;;11.70
33877;BMP180;20166;51.738;7.158;2024-03-22T01:55:33;101440.00;;;11.80
33877;BMP180;20166;51.738;7.158;2024-03-22T01:58:19;101439.00;;;11.80
33877;BMP180;20166;51.738;7.158;2024-03-22T02:01:04;101437.00;;;11.70
33877;BMP180;20166;51.738;7.158;2024-03-22T02:03:49;101420.00;;;11.70
33877;BMP180;20166;51.738;7.158;2024-03-22T02:06:34;101425.00;;;11.80
33877;BMP180;20166;51.738;7.158;2024-03-22T02:09:21;101424.00;;;11.80
33877;BMP180;20166;51.738;7.158;2024-03-22T02:12:06;101428.00;;;11.80
33877;BMP180;20166;51.738;7.158;2024-03-22T02:14:52;101421.00;;;11.80
33877;BMP180;20166;51.738;7.158;2024-03-22T02:17:36;101420.00;;;11.80
33877;BMP180;20166;51.738;7.158;2024-03-22T02:20:22;101415.00;;;11.80
33877;BMP180;20166;51.738;7.158;2024-03-22T02:23:07;101409.00;;;11.90
33877;BMP180;20166;51.738;7.158;2024-03-22T02:25:54;101407.00;;;11.90
33877;BMP180;20166;51.738;7.158;2024-03-22T02:28:38;101400.00;;;11.90
33877;BMP180;20166;51.738;7.158;2024-03-22T02:31:24;101394.00;;;11.80
33877;BMP180;20166;51.738;7.158;2024-03-22T02:34:09;101399.00;;;11.80
33877;BMP180;20166;51.738;7.158;2024-03-22T02:36:55;101399.00;;;11.80
33877;BMP180;20166;51.738;7.158;2024-03-22T02:39:40;101405.00;;;11.80
33877;BMP180;20166;51.738;7.158;2024-03-22T02:42:27;101399.00;;;11.80
33877;BMP180;20166;51.738;7.158;2024-03-22T02:45:11;101394.00;;;11.80
33877;BMP180;20166;51.738;7.158;2024-03-22T02:47:57;101383.00;;;11.80
33877;BMP180;20166;51.738;7.158;2024-03-22T02:50:41;101389.00;;;11.80
33877;BMP180;20166;51.738;7.158;2024-03-22T02:53:27;101368.00;;;11.80
33877;BMP180;20166;51.738;7.158;2024-03-22T02:56:13;101361.00;;;11.80
33877;BMP180;20166;51.738;7.158;2024-03-22T02:58:59;101367.00;;;11.90
33877;BMP180;20166;51.738;7.158;2024-03-22T03:01:45;101375.00;;;11.90
33877;BMP180;20166;51.738;7.158;2024-03-22T03:04:29;101380.00;;;11.90
33877;BMP180;20166;51.738;7.158;2024-03-22T03:07:14;101370.00;;;11.80
33877;BMP180;20166;51.738;7.158;2024-03-22T03:09:58;101372.00;;;11.80
33877;BMP180;20166;51.738;7.158;2024-03-22T03:12:44;101366.00;;;11.80
33877;BMP180;20166;51.738;7.158;2024-03-22T03:15:30;101363.00;;;11.80
33877;BMP180;20166;51.738;7.158;2024-03-22T03:18:15;101352.00;;;11.80
33877;BMP180;20166;51.738;7.158;2024-03-22T03:21:00;101352.00;;;11.80
33877;BMP180;20166;51.738;7.158;2024-03-22T03:23:45;101346.00;;;11.80
33877;BMP180;20166;51.738;7.158;2024-03-22T03:26:29;101332.00;;;11.70
33877;BMP180;20166;51.738;7.158;2024-03-22T03:29:15;101329.00;;;11.80
33877;BMP180;20166;51.738;7.158;2024-03-22T03:32:01;101324.00;;;11.80
33877;BMP180;20166;51.738;7.158;2024-03-22T03:34:46;101317.00;;;11.80
33877;BMP180;20166;51.738;7.158;2024-03-22T03:37:30;101325.00;;;11.80
33877;BMP180;20166;51.738;7.158;2024-03-22T03:40:16;101320.00;;;11.70
33877;BMP180;20166;51.738;7.158;2024-03-22T03:43:00;101317.00;;;11.80
33877;BMP180;20166;51.738;7.158;2024-03-22T03:45:46;101302.00;;;11.70
33877;BMP180;20166;51.738;7.158;2024-03-22T03:48:32;101313.00;;;11.70
33877;BMP180;20166;51.738;7.158;2024-03-22T03:51:17;101290.00;;;11.70
33877;BMP180;20166;51.738;7.158;2024-03-22T03:54:02;101288.00;;;11.70
33877;BMP180;20166;51.738;7.158;2024-03-22T03:56:48;101287.00;;;11.70
33877;BMP180;20166;51.738;7.158;2024-03-22T03:59:32;101279.00;;;11.70
33877;BMP180;20166;51.738;7.158;2024-03-22T04:02:18;101276.00;;;11.80
33877;BMP180;20166;51.738;7.158;2024-03-22T04:05:05;101275.00;;;11.80
33877;BMP180;20166;51.738;7.158;2024-03-22T04:07:51;101266.00;;;11.80
33877;BMP180;20166;51.738;7.158;2024-03-22T04:10:35;101259.00;;;11.80
33877;BMP180;20166;51.738;7.158;2024-03-22T04:13:21;101253.00;;;11.80
33877;BMP180;20166;51.738;7.158;2024-03-22T04:16:05;101250.00;;;11.70
33877;BMP180;20166;51.738;7.158;2024-03-22T04:18:51;101249.00;;;11.80
33877;BMP180;20166;51.738;7.158;2024-03-22T04:21:37;101243.00;;;11.80
33877;BMP180;20166;51.738;7.158;2024-03-22T04:24:23;101252.00;;;11.80
33877;BMP180;20166;51.738;7.158;2024-03-22T04:27:08;101246.00;;;11.80
33877;BMP180;20166;51.738;7.158;2024-03-22T04:29:53;101244.00;;;11.80
33877;BMP180;20166;51.738;7.158;2024-03-22T04:32:38;101236.00;;;11.80
33877;BMP180;20166;51.738;7.158;2024-03-22T04:35:23;101230.00;;;11.80
33877;BMP180;20166;51.738;7.158;2024-03-22T04:38:10;101224.00;;;11.80
33877;BMP180;20166;51.738;7.158;2024-03-22T04:40:56;101225.00;;;11.80
33877;BMP180;20166;51.738;7.158;2024-03-22T04:43:42;101231.00;;;11.80
33877;BMP180;20166;51.738;7.158;2024-03-22T04:46:28;101227.00;;;11.80
33877;BMP180;20166;51.738;7.158;2024-03-22T04:49:12;101225.00;;;11.80
33877;BMP180;20166;51.738;7.158;2024-03-22T04:51:59;101225.00;;;11.80
33877;BMP180;20166;51.738;7.158;2024-03-22T04:54:45;101215.00;;;11.80
33877;BMP180;20166;51.738;7.158;2024-03-22T04:57:31;101220.00;;;11.80
33877;BMP180;20166;51.738;7.158;2024-03-22T05:00:16;101217.00;;;11.80
33877;BMP180;20166;51.738;7.158;2024-03-22T05:03:02;101225.00;;;11.70
33877;BMP180;20166;51.738;7.158;2024-03-22T05:05:47;101224.00;;;11.80
33877;BMP180;20166;51.738;7.158;2024-03-22T05:08:32;101213.00;;;11.80
33877;BMP180;20166;51.738;7.158;2024-03-22T05:11:18;101212.00;;;11.80
33877;BMP180;20166;51.738;7.158;2024-03-22T05:14:04;101211.00;;;11.80
33877;BMP180;20166;51.738;7.158;2024-03-22T05:16:49;101213.00;;;11.80
33877;BMP180;20166;51.738;7.158;2024-03-22T05:19:34;101211.00;;;11.80
33877;BMP180;20166;51.738;7.158;2024-03-22T05:22:19;101220.00;;;11.80
33877;BMP180;20166;51.738;7.158;2024-03-22T05:25:07;101211.00;;;11.80
33877;BMP180;20166;51.738;7.158;2024-03-22T05:27:53;101209.00;;;11.80
33877;BMP180;20166;51.738;7.158;2024-03-22T05:30:39;101205.00;;;11.80
33877;BMP180;20166;51.738;7.158;2024-03-22T05:33:23;101202.00;;;11.80
33877;BMP180;20166;51.738;7.158;2024-03-22T05:36:08;101200.00;;;11.90
33877;BMP180;20166;51.738;7.158;2024-03-22T05:38:53;101194.00;;;11.90
33877;BMP180;20166;51.738;7.158;2024-03-22T05:41:39;101188.00;;;11.90
33877;BMP180;20166;51.738;7.158;2024-03-22T05:44:25;101195.00;;;12.00
33877;BMP180;20166;51.738;7.158;2024-03-22T05:47:10;101198.00;;;12.00
33877;BMP180;20166;51.738;7.158;2024-03-22T05:49:55;101194.00;;;12.10
33877;BMP180;20166;51.738;7.158;2024-03-22T05:52:40;101191.00;;;12.10
33877;BMP180;20166;51.738;7.158;2024-03-22T05:55:25;101185.00;;;12.10
33877;BMP180;20166;51.738;7.158;2024-03-22T05:58:15;101186.00;;;12.10
33877;BMP180;20166;51.738;7.158;2024-03-22T06:01:00;101183.00;;;12.20
33877;BMP180;20166;51.738;7.158;2024-03-22T06:03:47;101185.00;;;12.30
33877;BMP180;20166;51.738;7.158;2024-03-22T06:06:31;101180.00;;;12.30
33877;BMP180;20166;51.738;7.158;2024-03-22T06:09:17;101179.00;;;12.30
33877;BMP180;20166;51.738;7.158;2024-03-22T06:12:07;101170.00;;;12.30
33877;BMP180;20166;51.738;7.158;2024-03-22T06:14:53;101177.00;;;12.30
33877;BMP180;20166;51.738;7.158;2024-03-22T06:17:40;101164.00;;;12.30
33877;BMP180;20166;51.738;7.158;2024-03-22T06:20:26;101170.00;;;12.30
33877;BMP180;20166;51.738;7.158;2024-03-22T06:23:12;101166.00;;;12.30
33877;BMP180;20166;51.738;7.158;2024-03-22T06:25:57;101167.00;;;12.30
33877;BMP180;20166;51.738;7.158;2024-03-22T06:28:43;101164.00;;;12.30
33877;BMP180;20166;51.738;7.158;2024-03-22T06:31:27;101167.00;;;12.30
33877;BMP180;20166;51.738;7.158;2024-03-22T06:34:14;101176.00;;;12.40
33877;BMP180;20166;51.738;7.158;2024-03-22T06:37:00;101178.00;;;12.40
33877;BMP180;20166;51.738;7.158;2024-03-22T06:39:45;101176.00;;;12.40
33877;BMP180;20166;51.738;7.158;2024-03-22T06:42:31;101173.00;;;12.40
33877;BMP180;20166;51.738;7.158;2024-03-22T06:45:15;101169.00;;;12.50
33877;BMP180;20166;51.738;7.158;2024-03-22T06:48:01;101168.00;;;12.60
33877;BMP180;20166;51.738;7.158;2024-03-22T06:50:47;101183.00;;;12.70
33877;BMP180;20166;51.738;7.158;2024-03-22T06:53:33;101179.00;;;12.70
33877;BMP180;20166;51.738;7.158;2024-03-22T06:56:17;101176.00;;;12.80
33877;BMP180;20166;51.738;7.158;2024-03-22T06:59:03;101179.00;;;12.80
33877;BMP180;20166;51.738;7.158;2024-03-22T07:01:48;101177.00;;;13.00
33877;BMP180;20166;51.738;7.158;2024-03-22T07:04:34;101170.00;;;13.00
33877;BMP180;20166;51.738;7.158;2024-03-22T07:07:20;101170.00;;;13.10
33877;BMP180;20166;51.738;7.158;2024-03-22T07:10:06;101166.00;;;13.20
33877;BMP180;20166;51.738;7.158;2024-03-22T07:12:50;101152.00;;;13.20
33877;BMP180;20166;51.738;7.158;2024-03-22T07:15:36;101155.00;;;13.30
33877;BMP180;20166;51.738;7.158;2024-03-22T07:18:20;101150.00;;;13.30
33877;BMP180;20166;51.738;7.158;2024-03-22T07:21:06;101153.00;;;13.40
33877;BMP180;20166;51.738;7.158;2024-03-22T07:23:52;101155.00;;;13.30
33877;BMP180;20166;51.738;7.158;2024-03-22T07:26:38;101144.00;;;13.40
33877;BMP180;20166;51.738;7.158;2024-03-22T07:29:23;101157.00;;;13.40
33877;BMP180;20166;51.738;7.158;2024-03-22T07:32:08;101145.00;;;13.40
33877;BMP180;20166;51.738;7.158;2024-03-22T07:34:54;101140.00;;;13.40
33877;BMP180;20166;51.738;7.158;2024-03-22T07:37:38;101138.00;;;13.40
33877;BMP180;20166;51.738;7.158;2024-03-22T07:40:25;101137.00;;;13.40
33877;BMP180;20166;51.738;7.158;2024-03-22T07:43:10;101148.00;;;13.40
33877;BMP180;20166;51.738;7.158;2024-03-22T07:45:57;101143.00;;;13.50
33877;BMP180;20166;51.738;7.158;2024-03-22T07:48:42;101151.00;;;13.60
33877;BMP180;20166;51.738;7.158;2024-03-22T07:51:27;101152.00;;;13.70
33877;BMP180;20166;51.738;7.158;2024-03-22T07:54:12;101150.00;;;13.60
33877;BMP180;20166;51.738;7.158;2024-03-22T07:56:59;101157.00;;;13.70
33877;BMP180;20166;51.738;7.158;2024-03-22T07:59:44;101159.00;;;13.70
33877;BMP180;20166;51.738;7.158;2024-03-22T08:02:29;101150.00;;;13.70
33877;BMP180;20166;51.738;7.158;2024-03-22T08:05:14;101153.00;;;13.80
33877;BMP180;20166;51.738;7.158;2024-03-22T08:08:00;101156.00;;;13.80
33877;BMP180;20166;51.738;7.158;2024-03-22T08:10:44;101143.00;;;13.70
33877;BMP180;20166;51.738;7.158;2024-03-22T08:13:31;101149.00;;;13.70
33877;BMP180;20166;51.738;7.158;2024-03-22T08:16:16;101146.00;;;13.70
33877;BMP180;20166;51.738;7.158;2024-03-22T08:19:02;101141.00;;;13.70
33877;BMP180;20166;51.738;7.158;2024-03-22T08:21:46;101147.00;;;13.80
33877;BMP180;20166;51.738;7.158;2024-03-22T08:24:32;101154.00;;;13.90
33877;BMP180;20166;51.738;7.158;2024-03-22T08:27:18;101147.00;;;13.90
33877;BMP180;20166;51.738;7.158;2024-03-22T08:30:07;101145.00;;;13.90
33877;BMP180;20166;51.738;7.158;2024-03-22T08:32:51;101142.00;;;14.00
33877;BMP180;20166;51.738;7.158;2024-03-22T08:35:37;101132.00;;;14.00
33877;BMP180;20166;51.738;7.158;2024-03-22T08:38:21;101131.00;;;14.10
33877;BMP180;20166;51.738;7.158;2024-03-22T08:41:08;101139.00;;;14.10
33877;BMP180;20166;51.738;7.158;2024-03-22T08:43:53;101133.00;;;14.10
33877;BMP180;20166;51.738;7.158;2024-03-22T08:46:40;101137.00;;;14.20
33877;BMP180;20166;51.738;7.158;2024-03-22T08:49:25;101132.00;;;14.20
33877;BMP180;20166;51.738;7.158;2024-03-22T08:52:10;101127.00;;;14.20
33877;BMP180;20166;51.738;7.158;2024-03-22T08:54:54;101132.00;;;14.10
33877;BMP180;20166;51.738;7.158;2024-03-22T08:57:40;101126.00;;;14.20
33877;BMP180;20166;51.738;7.158;2024-03-22T09:00:24;101121.00;;;14.30
33877;BMP180;20166;51.738;7.158;2024-03-22T09:03:12;101111.00;;;14.40
33877;BMP180;20166;51.738;7.158;2024-03-22T09:05:58;101122.00;;;14.40
33877;BMP180;20166;51.738;7.158;2024-03-22T09:08:44;101117.00;;;14.50
33877;BMP180;20166;51.738;7.158;2024-03-22T09:11:28;101106.00;;;14.50
33877;BMP180;20166;51.738;7.158;2024-03-22T09:14:14;101095.00;;;14.40
33877;BMP180;20166;51.738;7.158;2024-03-22T09:16:58;101094.00;;;14.50
33877;BMP180;20166;51.738;7.158;2024-03-22T09:19:45;101109.00;;;14.40
33877;BMP180;20166;51.738;7.158;2024-03-22T09:22:30;101105.00;;;14.60
33877;BMP180;20166;51.738;7.158;2024-03-22T09:25:16;101105.00;;;14.50
33877;BMP180;20166;51.738;7.158;2024-03-22T09:28:00;101090.00;;;14.60
33877;BMP180;20166;51.738;7.158;2024-03-22T09:30:46;101075.00;;;14.70
33877;BMP180;20166;51.738;7.158;2024-03-22T09:33:32;101090.00;;;14.70
33877;BMP180;20166;51.738;7.158;2024-03-22T09:36:19;101084.00;;;14.60
33877;BMP180;20166;51.738;7.158;2024-03-22T09:39:05;101075.00;;;14.50
33877;BMP180;20166;51.738;7.158;2024-03-22T09:41:56;101078.00;;;14.70
33877;BMP180;20166;51.738;7.158;2024-03-22T09:44:44;101077.00;;;14.70
33877;BMP180;20166;51.738;7.158;2024-03-22T09:47:32;101077.00;;;14.90
33877;BMP180;20166;51.738;7.158;2024-03-22T09:50:17;101080.00;;;15.10
33877;BMP180;20166;51.738;7.158;2024-03-22T09:53:05;101085.00;;;15.20
33877;BMP180;20166;51.738;7.158;2024-03-22T09:55:52;101079.00;;;15.20
33877;BMP180;20166;51.738;7.158;2024-03-22T09:58:42;101083.00;;;15.10
33877;BMP180;20166;51.738;7.158;2024-03-22T10:01:27;101075.00;;;15.10
33877;BMP180;20166;51.738;7.158;2024-03-22T10:04:14;101074.00;;;15.20
33877;BMP180;20166;51.738;7.158;2024-03-22T10:06:58;101079.00;;;15.20
33877;BMP180;20166;51.738;7.158;2024-03-22T10:09:46;101064.00;;;15.10
33877;BMP180;20166;51.738;7.158;2024-03-22T10:12:30;101082.00;;;15.00
33877;BMP180;20166;51.738;7.158;2024-03-22T10:15:17;101077.00;;;15.00
33877;BMP180;20166;51.738;7.158;2024-03-22T10:18:01;101076.00;;;14.90
33877;BMP180;20166;51.738;7.158;2024-03-22T10:20:47;101066.00;;;15.00
33877;BMP180;20166;51.738;7.158;2024-03-22T10:23:31;101070.00;;;14.90
33877;BMP180;20166;51.738;7.158;2024-03-22T10:26:18;101066.00;;;15.00
33877;BMP180;20166;51.738;7.158;2024-03-22T10:29:05;101057.00;;;15.00
33877;BMP180;20166;51.738;7.158;2024-03-22T10:31:52;101061.00;;;15.00
33877;BMP180;20166;51.738;7.158;2024-03-22T10:34:37;101068.00;;;14.90
33877;BMP180;20166;51.738;7.158;2024-03-22T10:37:24;101064.00;;;14.90
33877;BMP180;20166;51.738;7.158;2024-03-22T10:40:09;101059.00;;;14.80
33877;BMP180;20166;51.738;7.158;2024-03-22T10:42:56;101072.00;;;14.70
33877;BMP180;20166;51.738;7.158;2024-03-22T10:45:41;101067.00;;;14.70
33877;BMP180;20166;51.738;7.158;2024-03-22T10:48:28;101058.00;;;14.70
33877;BMP180;20166;51.738;7.158;2024-03-22T10:51:16;101055.00;;;14.60
33877;BMP180;20166;51.738;7.158;2024-03-22T10:54:03;101066.00;;;14.60
33877;BMP180;20166;51.738;7.158;2024-03-22T10:56:49;101066.00;;;14.60
33877;BMP180;20166;51.738;7.158;2024-03-22T10:59:36;101062.00;;;14.60
33877;BMP180;20166;51.738;7.158;2024-03-22T11:02:23;101060.00;;;14.50
33877;BMP180;20166;51.738;7.158;2024-03-22T11:05:16;101075.00;;;14.30
33877;BMP180;20166;51.738;7.158;2024-03-22T11:08:03;101060.00;;;14.30
33877;BMP180;20166;51.738;7.158;2024-03-22T11:10:48;101067.00;;;14.30
33877;BMP180;20166;51.738;7.158;2024-03-22T11:13:35;101067.00;;;14.20
33877;BMP180;20166;51.738;7.158;2024-03-22T11:16:21;101058.00;;;14.20
33877;BMP180;20166;51.738;7.158;2024-03-22T11:19:07;101052.00;;;14.10
33877;BMP180;20166;51.738;7.158;2024-03-22T11:21:54;101055.00;;;14.00
33877;BMP180;20166;51.738;7.158;2024-03-22T11:24:39;101049.00;;;14.00
33877;BMP180;20166;51.738;7.158;2024-03-22T11:27:24;101050.00;;;14.10
33877;BMP180;20166;51.738;7.158;2024-03-22T11:30:10;101062.00;;;14.00
33877;BMP180;20166;51.738;7.158;2024-03-22T11:32:56;101051.00;;;13.90
33877;BMP180;20166;51.738;7.158;2024-03-22T11:35:44;101051.00;;;14.00
33877;BMP180;20166;51.738;7.158;2024-03-22T11:38:28;101051.00;;;13.90
33877;BMP180;20166;51.738;7.158;2024-03-22T11:41:17;101053.00;;;13.80
33877;BMP180;20166;51.738;7.158;2024-03-22T11:44:02;101053.00;;;13.80
33877;BMP180;20166;51.738;7.158;2024-03-22T11:46:48;101059.00;;;13.70
33877;BMP180;20166;51.738;7.158;2024-03-22T11:49:34;101063.00;;;13.70
33877;BMP180;20166;51.738;7.158;2024-03-22T11:52:24;101058.00;;;13.60
33877;BMP180;20166;51.738;7.158;2024-03-22T11:55:10;101053.00;;;13.50
33877;BMP180;20166;51.738;7.158;2024-03-22T11:57:57;101048.00;;;13.60
33877;BMP180;20166;51.738;7.158;2024-03-22T12:00:42;101052.00;;;13.60
33877;BMP180;20166;51.738;7.158;2024-03-22T12:03:28;101046.00;;;13.60
33877;BMP180;20166;51.738;7.158;2024-03-22T12:06:15;101037.00;;;13.60
33877;BMP180;20166;51.738;7.158;2024-03-22T12:09:01;101022.00;;;13.70
33877;BMP180;20166;51.738;7.158;2024-03-22T12:11:45;101028.00;;;13.70
33877;BMP180;20166;51.738;7.158;2024-03-22T12:14:31;101023.00;;;13.70
33877;BMP180;20166;51.738;7.158;2024-03-22T12:17:15;101029.00;;;13.70
33877;BMP180;20166;51.738;7.158;2024-03-22T12:20:01;101023.00;;;13.70
33877;BMP180;20166;51.738;7.158;2024-03-22T12:22:49;101018.00;;;13.70
33877;BMP180;20166;51.738;7.158;2024-03-22T12:25:35;101027.00;;;13.70
33877;BMP180;20166;51.738;7.158;2024-03-22T12:28:21;101023.00;;;13.70
33877;BMP180;20166;51.738;7.158;2024-03-22T12:31:08;101015.00;;;13.80
33877;BMP180;20166;51.738;7.158;2024-03-22T12:33:52;101010.00;;;13.80
33877;BMP180;20166;51.738;7.158;2024-03-22T12:36:38;101018.00;;;13.90
33877;BMP180;20166;51.738;7.158;2024-03-22T12:39:24;101009.00;;;13.90
33877;BMP180;20166;51.738;7.158;2024-03-22T12:42:10;101031.00;;;13.90
33877;BMP180;20166;51.738;7.158;2024-03-22T12:44:55;101017.00;;;13.80
33877;BMP180;20166;51.738;7.158;2024-03-22T12:47:40;101014.00;;;13.80
33877;BMP180;20166;51.738;7.158;2024-03-22T12:50:26;101005.00;;;13.80
33877;BMP180;20166;51.738;7.158;2024-03-22T12:53:12;101006.00;;;13.60
33877;BMP180;20166;51.738;7.158;2024-03-22T12:55:57;101001.00;;;13.60
33877;BMP180;20166;51.738;7.158;2024-03-22T12:58:42;101000.00;;;13.40
33877;BMP180;20166;51.738;7.158;2024-03-22T13:01:27;100997.00;;;13.40
33877;BMP180;20166;51.738;7.158;2024-03-22T13:04:13;100986.00;;;13.30
33877;BMP180;20166;51.738;7.158;2024-03-22T13:06:58;100990.00;;;13.20
33877;BMP180;20166;51.738;7.158;2024-03-22T13:09:44;100985.00;;;13.20
33877;BMP180;20166;51.738;7.158;2024-03-22T13:12:30;100983.00;;;13.10
33877;BMP180;20166;51.738;7.158;2024-03-22T13:15:18;100980.00;;;13.10
33877;BMP180;20166;51.738;7.158;2024-03-22T13:18:03;100972.00;;;13.20
33877;BMP180;20166;51.738;7.158;2024-03-22T13:20:48;100978.00;;;13.10
33877;BMP180;20166;51.738;7.158;2024-03-22T13:23:33;100976.00;;;13.10
33877;BMP180;20166;51.738;7.158;2024-03-22T13:26:18;100963.00;;;13.10
33877;BMP180;20166;51.738;7.158;2024-03-22T13:29:05;100964.00;;;13.20
33877;BMP180;20166;51.738;7.158;2024-03-22T13:31:51;100956.00;;;13.20
33877;BMP180;20166;51.738;7.158;2024-03-22T13:34:36;100948.00;;;13.30
33877;BMP180;20166;51.738;7.158;2024-03-22T13:37:22;100941.00;;;13.20
33877;BMP180;20166;51.738;7.158;2024-03-22T13:40:08;100941.00;;;13.20
33877;BMP180;20166;51.738;7.158;2024-03-22T13:42:54;100933.00;;;13.30
33877;BMP180;20166;51.738;7.158;2024-03-22T13:45:41;100935.00;;;13.30
33877;BMP180;20166;51.738;7.158;2024-03-22T13:48:27;100937.00;;;13.30
33877;BMP180;20166;51.738;7.158;2024-03-22T13:51:11;100931.00;;;13.20
33877;BMP180;20166;51.738;7.158;2024-03-22T13:53:57;100929.00;;;13.10
33877;BMP180;20166;51.738;7.158;2024-03-22T13:56:41;100931.00;;;13.10
33877;BMP180;20166;51.738;7.158;2024-03-22T13:59:27;100925.00;;;13.10
33877;BMP180;20166;51.738;7.158;2024-03-22T14:02:14;100922.00;;;13.10
33877;BMP180;20166;51.738;7.158;2024-03-22T14:04:59;100932.00;;;13.10
33877;BMP180;20166;51.738;7.158;2024-03-22T14:07:46;100925.00;;;13.10
33877;BMP180;20166;51.738;7.158;2024-03-22T14:10:31;100913.00;;;13.10
33877;BMP180;20166;51.738;7.158;2024-03-22T14:13:16;100910.00;;;13.10
33877;BMP180;20166;51.738;7.158;2024-03-22T14:16:01;100909.00;;;13.10
33877;BMP180;20166;51.738;7.158;2024-03-22T14:18:47;100906.00;;;13.00
33877;BMP180;20166;51.738;7.158;2024-03-22T14:21:33;100904.00;;;13.00
33877;BMP180;20166;51.738;7.158;2024-03-22T14:24:18;100900.00;;;13.10
33877;BMP180;20166;51.738;7.158;2024-03-22T14:27:04;100904.00;;;13.00
33877;BMP180;20166;51.738;7.158;2024-03-22T14:29:49;100890.00;;;12.80
33877;BMP180;20166;51.738;7.158;2024-03-22T14:32:36;100893.00;;;12.80
33877;BMP180;20166;51.738;7.158;2024-03-22T14:35:22;100889.00;;;12.80
33877;BMP180;20166;51.738;7.158;2024-03-22T14:38:08;100899.00;;;12.90
33877;BMP180;20166;51.738;7.158;2024-03-22T14:40:52;100896.00;;;12.90
33877;BMP180;20166;51.738;7.158;2024-03-22T14:43:38;100884.00;;;12.80
33877;BMP180;20166;51.738;7.158;2024-03-22T14:46:23;100880.00;;;12.80
33877;BMP180;20166;51.738;7.158;2024-03-22T14:49:09;100883.00;;;12.70
33877;BMP180;20166;51.738;7.158;2024-03-22T14:51:55;100882.00;;;12.70
33877;BMP180;20166;51.738;7.158;2024-03-22T14:54:41;100875.00;;;12.80
33877;BMP180;20166;51.738;7.158;2024-03-22T14:57:27;100880.00;;;12.80
33877;BMP180;20166;51.738;7.158;2024-03-22T15:00:13;100879.00;;;12.80
33877;BMP180;20166;51.738;7.158;2024-03-22T15:02:59;100874.00;;;12.80
33877;BMP180;20166;51.738;7.158;2024-03-22T15:05:44;100880.00;;;12.80
33877;BMP180;20166;51.738;7.158;2024-03-22T15:08:31;100873.00;;;12.70
33877;BMP180;20166;51.738;7.158;2024-03-22T15:11:16;100868.00;;;12.70
33877;BMP180;20166;51.738;7.158;2024-03-22T15:14:01;100861.00;;;12.70
33877;BMP180;20166;51.738;7.158;2024-03-22T15:16:47;100861.00;;;12.70
33877;BMP180;20166;51.738;7.158;2024-03-22T15:19:32;100857.00;;;12.70
33877;BMP180;20166;51.738;7.158;2024-03-22T15:22:18;100857.00;;;12.70
33877;BMP180;20166;51.738;7.158;2024-03-22T15:25:06;100852.00;;;12.70
33877;BMP180;20166;51.738;7.158;2024-03-22T15:27:51;100846.00;;;12.60
33877;BMP180;20166;51.738;7.158;2024-03-22T15:30:37;100845.00;;;12.50
33877;BMP180;20166;51.738;7.158;2024-03-22T15:33:22;100838.00;;;12.50
33877;BMP180;20166;51.738;7.158;2024-03-22T15:36:08;100822.00;;;12.50
33877;BMP180;20166;51.738;7.158;2024-03-22T15:38:53;100828.00;;;12.50
33877;BMP180;20166;51.738;7.158;2024-03-22T15:41:40;100818.00;;;12.50